Time;durP1;ratioP1;P1;durP2;ratioP2;P2;SDS_P1;SDS_P2;PMS_P1;PMS_P2;Temp;Humidity;BMP_temperature;BMP_pressure;BME280_temperature;BME280_humidity;BME280_pressure;Samples;Min_cycle;Max_cycle;Signal;HPM_P1;HPM_P2
2023/01/08 00:01:14;;;;;;;2.40;1.30;;;7.90;99.90;;;;;;5073424;28;20510;-59
2023/01/08 00:03:42;;;;;;;1.58;1.02;;;7.80;99.90;;;;;;5076974;28;20513;-59
2023/01/08 00:06:12;;;;;;;2.63;1.40;;;7.80;99.90;;;;;;5077141;28;20430;-59
2023/01/08 00:08:40;;;;;;;1.92;1.20;;;7.80;99.90;;;;;;5077852;28;20484;-58
2023/01/08 00:11:07;;;;;;;2.40;1.20;;;7.80;99.90;;;;;;5076290;28;20780;-58
2023/01/08 00:13:34;;;;;;;1.60;1.15;;;7.80;99.90;;;;;;5075584;28;20407;-59
2023/01/08 00:16:06;;;;;;;1.90;1.10;;;7.80;99.90;;;;;;5076094;28;20431;-59
2023/01/08 00:18:34;;;;;;;1.60;1.10;;;7.80;99.90;;;;;;5075628;28;20454;-58
2023/01/08 00:21:03;;;;;;;1.63;1.30;;;7.80;99.90;;;;;;5076869;28;20455;-60
2023/01/08 00:23:31;;;;;;;2.17;1.10;;;7.90;99.90;;;;;;5075981;28;20426;-58
2023/01/08 00:26:01;;;;;;;2.63;1.40;;;7.80;99.90;;;;;;5076772;28;20508;-59
2023/01/08 00:28:28;;;;;;;2.10;1.30;;;7.90;99.90;;;;;;5077338;28;20415;-58
2023/01/08 00:30:55;;;;;;;1.87;1.17;;;7.90;99.90;;;;;;5077895;28;20488;-58
2023/01/08 00:33:22;;;;;;;1.90;1.20;;;7.90;99.90;;;;;;5077844;28;20431;-59
2023/01/08 00:35:50;;;;;;;1.50;1.08;;;7.90;99.90;;;;;;5077756;28;20434;-59
2023/01/08 00:38:18;;;;;;;2.25;1.20;;;7.90;99.90;;;;;;5077068;28;20865;-58
2023/01/08 00:40:45;;;;;;;2.75;1.13;;;7.90;99.90;;;;;;5077191;28;20498;-58
2023/01/08 00:43:12;;;;;;;1.90;1.27;;;7.90;99.90;;;;;;5076578;28;20429;-58
2023/01/08 00:45:40;;;;;;;1.73;1.10;;;8.00;99.90;;;;;;5076256;28;20412;-59
2023/01/08 00:48:07;;;;;;;1.95;1.20;;;8.00;99.90;;;;;;5077608;28;20437;-59
2023/01/08 00:50:34;;;;;;;2.00;1.20;;;7.90;99.90;;;;;;5075891;28;20434;-58
2023/01/08 00:53:02;;;;;;;2.53;1.05;;;7.90;99.90;;;;;;5076827;28;20427;-58
2023/01/08 00:55:30;;;;;;;1.90;1.33;;;7.90;99.90;;;;;;5072756;28;20435;-59
2023/01/08 00:57:58;;;;;;;2.70;1.10;;;7.90;99.90;;;;;;5077112;28;20484;-58
2023/01/08 01:00:25;;;;;;;2.08;1.20;;;7.80;99.90;;;;;;5077020;28;20424;-59
2023/01/08 01:02:52;;;;;;;2.38;1.35;;;7.80;99.90;;;;;;5078188;28;20835;-58
2023/01/08 01:05:20;;;;;;;1.40;1.10;;;7.80;99.90;;;;;;5067459;28;20474;-58
2023/01/08 01:07:47;;;;;;;1.60;1.10;;;7.90;99.90;;;;;;5077263;28;20524;-59
2023/01/08 01:10:16;;;;;;;1.90;1.20;;;7.90;99.90;;;;;;5076453;28;20784;-59
2023/01/08 01:12:45;;;;;;;1.63;1.20;;;7.90;99.90;;;;;;5077976;28;20549;-59
2023/01/08 01:15:14;;;;;;;2.30;1.10;;;7.90;99.90;;;;;;5077518;28;20715;-59
2023/01/08 01:17:43;;;;;;;1.83;1.00;;;7.80;99.90;;;;;;5077539;28;20431;-58
2023/01/08 01:20:12;;;;;;;2.03;1.10;;;7.90;99.90;;;;;;5077154;28;20423;-59
2023/01/08 01:22:39;;;;;;;2.80;1.30;;;7.90;99.90;;;;;;5077334;28;20423;-58
2023/01/08 01:25:07;;;;;;;1.70;1.00;;;7.90;99.90;;;;;;5077098;28;20431;-58
2023/01/08 01:27:35;;;;;;;1.77;1.10;;;7.80;99.90;;;;;;5076598;28;20510;-58
2023/01/08 01:30:04;;;;;;;1.80;1.10;;;7.80;99.90;;;;;;5076961;28;20420;-58
2023/01/08 01:32:31;;;;;;;2.40;1.10;;;7.70;99.90;;;;;;5076823;28;20439;-58
2023/01/08 01:34:58;;;;;;;1.98;1.05;;;7.70;99.90;;;;;;5077073;28;20431;-59
2023/01/08 01:37:26;;;;;;;1.48;1.00;;;7.70;99.90;;;;;;5076739;28;20428;-59
2023/01/08 01:39:55;;;;;;;2.15;1.20;;;7.70;99.90;;;;;;5075164;28;20426;-58
2023/01/08 01:45:05;;;;;;;2.00;1.20;;;7.70;99.90;;;;;;5073895;28;20396;-58
2023/01/08 01:47:36;;;;;;;2.07;1.10;;;7.80;99.90;;;;;;5075564;28;20912;-58
2023/01/08 01:50:08;;;;;;;2.00;1.20;;;7.90;99.90;;;;;;5076742;28;20422;-58
2023/01/08 01:52:39;;;;;;;1.33;1.00;;;7.90;99.90;;;;;;5075752;28;20522;-58
2023/01/08 01:55:09;;;;;;;1.88;1.20;;;8.00;99.90;;;;;;5076716;28;20423;-59
2023/01/08 01:57:37;;;;;;;2.50;1.00;;;8.00;99.90;;;;;;5076599;28;20526;-58
2023/01/08 02:00:09;;;;;;;1.70;1.00;;;8.00;99.90;;;;;;5076272;28;20422;-58
2023/01/08 02:02:36;;;;;;;2.08;0.90;;;7.90;99.90;;;;;;5075951;28;20856;-59
2023/01/08 02:05:03;;;;;;;1.90;1.10;;;7.90;99.90;;;;;;5075179;28;20458;-58
2023/01/08 02:07:37;;;;;;;2.10;1.10;;;7.90;99.90;;;;;;5076494;28;20481;-58
2023/01/08 02:10:10;;;;;;;1.42;1.10;;;7.90;99.90;;;;;;5076644;28;20893;-59
2023/01/08 02:12:41;;;;;;;1.60;1.03;;;7.90;99.90;;;;;;5075670;28;20427;-59
2023/01/08 02:15:16;;;;;;;2.20;1.08;;;7.90;99.90;;;;;;5074177;28;20425;-59
2023/01/08 02:17:49;;;;;;;2.05;0.90;;;7.80;99.90;;;;;;5075802;28;20438;-58
2023/01/08 02:20:21;;;;;;;1.90;1.00;;;7.80;99.90;;;;;;5076646;28;20419;-59
2023/01/08 02:23:05;;;;;;;2.30;1.00;;;7.90;99.90;;;;;;5075720;28;20517;-58
2023/01/08 02:25:45;;;;;;;1.53;1.00;;;7.90;99.90;;;;;;5074597;28;20906;-58
2023/01/08 02:28:15;;;;;;;2.05;1.00;;;7.90;99.90;;;;;;5076233;28;20459;-59
2023/01/08 02:30:43;;;;;;;1.40;1.00;;;7.90;99.90;;;;;;5076399;28;20420;-59
2023/01/08 02:33:11;;;;;;;1.40;0.95;;;8.00;99.90;;;;;;5076062;28;20505;-58
2023/01/08 02:35:42;;;;;;;1.40;0.90;;;8.00;99.90;;;;;;5075514;28;20443;-60
2023/01/08 02:38:13;;;;;;;1.20;0.80;;;8.10;99.90;;;;;;5075581;28;20427;-60
2023/01/08 02:40:52;;;;;;;1.30;0.90;;;8.20;99.90;;;;;;5076445;28;20416;-60
2023/01/08 02:43:29;;;;;;;1.70;0.90;;;8.20;99.90;;;;;;5074859;28;20439;-60
2023/01/08 02:45:59;;;;;;;1.20;0.90;;;8.10;99.90;;;;;;5074763;28;20412;-60
2023/01/08 02:48:33;;;;;;;2.00;0.90;;;8.20;99.90;;;;;;5074838;28;20420;-59
2023/01/08 02:51:08;;;;;;;1.60;0.90;;;8.30;99.90;;;;;;5074803;28;20426;-59
2023/01/08 02:53:41;;;;;;;1.80;1.10;;;8.30;99.90;;;;;;5073678;28;20511;-59
2023/01/08 02:56:12;;;;;;;1.67;0.90;;;8.30;99.90;;;;;;5075502;28;21000;-59
2023/01/08 02:58:41;;;;;;;1.30;1.00;;;8.30;99.90;;;;;;5074866;28;20420;-59
2023/01/08 03:01:11;;;;;;;1.88;1.00;;;8.30;99.90;;;;;;5075275;28;20985;-60
2023/01/08 03:03:41;;;;;;;1.20;0.90;;;8.30;99.90;;;;;;5075598;28;20438;-60
2023/01/08 03:06:13;;;;;;;1.93;0.90;;;8.40;99.90;;;;;;5075030;28;20793;-60
2023/01/08 03:08:45;;;;;;;2.45;1.00;;;8.40;99.90;;;;;;5075240;28;20426;-60
2023/01/08 03:11:14;;;;;;;1.55;0.90;;;8.30;99.90;;;;;;5075120;28;20474;-60
2023/01/08 03:13:51;;;;;;;1.40;0.90;;;8.30;99.90;;;;;;5074372;28;20700;-59
2023/01/08 03:16:21;;;;;;;1.60;0.90;;;8.30;99.90;;;;;;5074762;28;20762;-60
2023/01/08 03:18:54;;;;;;;2.00;0.97;;;8.20;99.90;;;;;;5074168;28;20447;-59
2023/01/08 03:21:22;;;;;;;1.20;0.90;;;8.20;99.90;;;;;;5075107;28;20518;-60
2023/01/08 03:23:51;;;;;;;1.30;1.00;;;8.30;99.90;;;;;;5074295;28;20433;-59
2023/01/08 03:26:22;;;;;;;1.40;0.90;;;8.30;99.90;;;;;;5074994;28;20412;-59
2023/01/08 03:28:54;;;;;;;1.60;0.90;;;8.30;99.90;;;;;;5074502;28;20841;-59
2023/01/08 03:31:24;;;;;;;1.38;0.98;;;8.30;99.90;;;;;;5075285;28;20424;-60
2023/01/08 03:33:51;;;;;;;1.70;0.90;;;8.30;99.90;;;;;;5075310;28;20419;-59
2023/01/08 03:36:21;;;;;;;1.23;0.90;;;8.20;99.90;;;;;;5074606;28;20506;-59
2023/01/08 03:38:54;;;;;;;1.50;1.00;;;8.20;99.90;;;;;;5074414;28;20411;-60
2023/01/08 03:41:22;;;;;;;1.40;1.00;;;8.30;99.90;;;;;;5074915;28;20518;-60
2023/01/08 03:43:51;;;;;;;1.30;0.93;;;8.30;99.90;;;;;;5074159;28;20929;-60
2023/01/08 03:46:22;;;;;;;1.20;0.90;;;8.30;99.90;;;;;;5074715;28;20422;-59
2023/01/08 03:48:51;;;;;;;1.50;0.90;;;8.20;99.90;;;;;;5073827;28;20484;-59
2023/01/08 03:51:18;;;;;;;1.38;0.90;;;8.20;99.90;;;;;;5074936;28;20469;-59
2023/01/08 03:53:46;;;;;;;1.80;0.90;;;8.20;99.90;;;;;;5075117;28;20442;-59
2023/01/08 03:56:13;;;;;;;1.63;0.90;;;8.20;99.90;;;;;;5074291;28;20481;-60
2023/01/08 03:58:40;;;;;;;1.33;0.90;;;8.20;99.90;;;;;;5075198;28;20496;-59
2023/01/08 04:01:09;;;;;;;1.40;1.00;;;8.20;99.90;;;;;;5073462;28;20731;-59
2023/01/08 04:03:36;;;;;;;1.17;0.90;;;8.20;99.90;;;;;;5073823;28;20423;-60
2023/01/08 04:06:04;;;;;;;1.10;0.83;;;8.20;99.90;;;;;;5073653;28;20426;-60
2023/01/08 04:08:31;;;;;;;1.80;0.90;;;8.10;99.90;;;;;;5074273;28;20424;-59
2023/01/08 04:10:58;;;;;;;1.50;1.10;;;8.10;99.90;;;;;;5074199;28;20726;-59
2023/01/08 04:13:25;;;;;;;1.60;1.00;;;8.10;99.90;;;;;;5073256;28;20842;-60
2023/01/08 04:15:52;;;;;;;2.17;0.90;;;8.10;99.90;;;;;;5074035;28;20423;-59
2023/01/08 04:18:21;;;;;;;1.30;1.00;;;8.10;99.90;;;;;;5074197;28;20441;-59
2023/01/08 04:20:48;;;;;;;1.50;1.02;;;8.10;99.90;;;;;;5073908;28;20445;-59
2023/01/08 04:23:15;;;;;;;1.40;0.90;;;8.10;99.90;;;;;;5074833;28;20471;-59
2023/01/08 04:25:42;;;;;;;1.50;0.80;;;8.20;99.90;;;;;;5073965;28;20422;-59
2023/01/08 04:28:10;;;;;;;1.30;0.90;;;8.20;99.90;;;;;;5074523;28;20435;-59
2023/01/08 04:30:37;;;;;;;1.75;0.85;;;8.30;99.90;;;;;;5074223;28;20827;-60
2023/01/08 04:33:04;;;;;;;1.50;0.90;;;8.30;99.90;;;;;;5074997;28;20427;-60
2023/01/08 04:35:33;;;;;;;1.40;0.80;;;8.30;99.90;;;;;;5073701;28;20421;-60
2023/01/08 04:38:00;;;;;;;1.17;0.80;;;8.30;99.90;;;;;;5074641;28;20851;-59
2023/01/08 04:40:27;;;;;;;1.50;0.80;;;8.40;99.90;;;;;;5074435;28;20420;-59
2023/01/08 04:42:55;;;;;;;1.30;0.80;;;8.50;99.90;;;;;;5073128;28;20427;-60
2023/01/08 04:45:22;;;;;;;1.20;0.70;;;8.70;99.90;;;;;;5074135;28;20420;-60
2023/01/08 04:47:55;;;;;;;1.20;0.87;;;8.80;99.90;;;;;;5074263;28;20445;-60
2023/01/08 04:50:22;;;;;;;1.20;0.70;;;8.90;99.90;;;;;;5076417;28;20420;-60
2023/01/08 04:52:51;;;;;;;0.90;0.60;;;9.00;99.90;;;;;;5077199;28;20436;-60
2023/01/08 04:55:18;;;;;;;1.00;0.60;;;9.10;99.90;;;;;;5076346;28;20502;-60
2023/01/08 04:57:45;;;;;;;1.30;0.60;;;9.20;99.90;;;;;;5077387;28;20437;-60
2023/01/08 05:00:14;;;;;;;0.70;0.60;;;9.40;99.90;;;;;;5077592;28;20412;-59
2023/01/08 05:02:41;;;;;;;0.80;0.60;;;9.50;99.90;;;;;;5077305;28;20427;-61
2023/01/08 05:05:08;;;;;;;1.10;0.70;;;9.60;99.90;;;;;;5074016;28;20912;-60
2023/01/08 05:07:36;;;;;;;0.80;0.60;;;9.60;99.90;;;;;;5077186;28;20428;-60
2023/01/08 05:10:05;;;;;;;1.47;0.60;;;9.70;99.90;;;;;;5077510;28;20512;-60
2023/01/08 05:12:32;;;;;;;1.65;0.98;;;9.80;99.90;;;;;;5076995;28;20847;-60
2023/01/08 05:14:59;;;;;;;0.90;0.60;;;9.80;99.90;;;;;;5074518;28;20435;-60
2023/01/08 05:17:27;;;;;;;0.80;0.50;;;9.80;99.90;;;;;;5076201;28;20438;-60
2023/01/08 05:19:54;;;;;;;0.82;0.50;;;9.80;99.90;;;;;;5076161;28;20426;-60
2023/01/08 05:22:21;;;;;;;1.48;0.50;;;9.80;99.90;;;;;;5075494;28;20423;-59
2023/01/08 05:24:49;;;;;;;1.00;0.60;;;9.80;99.90;;;;;;5075045;28;20435;-59
2023/01/08 05:27:17;;;;;;;0.60;0.40;;;9.80;99.90;;;;;;5076095;28;20430;-60
2023/01/08 05:29:44;;;;;;;0.60;0.40;;;9.90;99.90;;;;;;5075890;28;20495;-59
2023/01/08 05:32:16;;;;;;;0.60;0.40;;;9.80;99.90;;;;;;5075816;28;20787;-60
2023/01/08 05:34:44;;;;;;;0.70;0.30;;;9.80;99.90;;;;;;5075924;28;20863;-60
2023/01/08 05:37:11;;;;;;;0.60;0.40;;;9.80;99.90;;;;;;5076640;28;20542;-59
2023/01/08 05:39:38;;;;;;;0.50;0.30;;;9.90;99.90;;;;;;5077249;28;20425;-59
2023/01/08 05:42:06;;;;;;;0.70;0.50;;;9.80;99.90;;;;;;5076704;28;20735;-60
2023/01/08 05:44:34;;;;;;;0.90;0.40;;;9.80;99.90;;;;;;5075983;28;20420;-60
2023/01/08 05:47:01;;;;;;;0.70;0.50;;;9.80;99.90;;;;;;5075969;28;20726;-59
2023/01/08 05:49:28;;;;;;;1.70;0.40;;;9.80;99.90;;;;;;5074572;28;20423;-59
2023/01/08 05:51:56;;;;;;;0.80;0.40;;;9.70;99.90;;;;;;5075940;28;20437;-59
2023/01/08 05:54:23;;;;;;;0.70;0.40;;;9.70;99.90;;;;;;5077182;28;20420;-60
2023/01/08 05:56:50;;;;;;;1.42;0.30;;;9.70;99.90;;;;;;5075786;28;20742;-61
2023/01/08 05:59:17;;;;;;;0.60;0.30;;;9.70;99.90;;;;;;5075336;28;20823;-58
2023/01/08 06:01:45;;;;;;;0.60;0.30;;;9.70;99.90;;;;;;5076042;28;20427;-58
2023/01/08 06:04:13;;;;;;;0.60;0.30;;;9.60;99.90;;;;;;5075791;28;20776;-61
2023/01/08 06:06:40;;;;;;;0.60;0.30;;;9.60;99.90;;;;;;5075173;28;20427;-58
2023/01/08 06:09:08;;;;;;;0.90;0.47;;;9.50;99.90;;;;;;5076418;28;20426;-61
2023/01/08 06:11:35;;;;;;;0.50;0.30;;;9.40;99.90;;;;;;5076682;28;20514;-61
2023/01/08 06:14:02;;;;;;;0.60;0.40;;;9.40;99.90;;;;;;5075610;28;20420;-61
2023/01/08 06:16:29;;;;;;;0.77;0.30;;;9.40;99.90;;;;;;5075809;28;20453;-61
2023/01/08 06:18:58;;;;;;;0.52;0.30;;;9.30;99.90;;;;;;5075956;28;21081;-61
2023/01/08 06:21:25;;;;;;;0.60;0.40;;;9.30;99.90;;;;;;5075691;28;20423;-60
2023/01/08 06:23:52;;;;;;;0.60;0.40;;;9.40;99.90;;;;;;5075692;28;20411;-61
2023/01/08 06:26:19;;;;;;;0.70;0.30;;;9.40;99.90;;;;;;5076069;28;20844;-60
2023/01/08 06:28:46;;;;;;;0.50;0.30;;;9.30;99.90;;;;;;5074804;28;20422;-60
2023/01/08 06:31:13;;;;;;;0.60;0.30;;;9.30;99.90;;;;;;5076597;28;20415;-60
2023/01/08 06:33:40;;;;;;;0.50;0.30;;;9.30;99.90;;;;;;5075981;28;20714;-61
2023/01/08 06:36:10;;;;;;;0.60;0.40;;;9.30;99.90;;;;;;5075451;28;20822;-58
2023/01/08 06:38:37;;;;;;;0.60;0.30;;;9.30;99.90;;;;;;5074482;28;20423;-60
2023/01/08 06:41:05;;;;;;;0.60;0.30;;;9.20;99.90;;;;;;5075721;28;20753;-58
2023/01/08 06:43:33;;;;;;;0.50;0.30;;;9.20;99.90;;;;;;5075208;28;20462;-60
2023/01/08 06:46:00;;;;;;;0.50;0.30;;;9.20;99.90;;;;;;5074837;28;20467;-61
2023/01/08 06:48:28;;;;;;;0.50;0.30;;;9.20;99.90;;;;;;5074428;28;20423;-61
2023/01/08 06:50:55;;;;;;;0.50;0.30;;;9.30;99.90;;;;;;5075532;28;20422;-58
2023/01/08 06:53:23;;;;;;;0.40;0.30;;;9.30;99.90;;;;;;5075294;28;20525;-61
2023/01/08 06:55:55;;;;;;;0.45;0.30;;;9.30;99.90;;;;;;5075013;28;20426;-59
2023/01/08 06:58:23;;;;;;;0.50;0.30;;;9.40;99.90;;;;;;5074843;28;20773;-59
2023/01/08 07:00:50;;;;;;;0.80;0.50;;;9.40;99.90;;;;;;5075058;28;20423;-59
2023/01/08 07:03:17;;;;;;;0.60;0.40;;;9.30;99.90;;;;;;5075700;28;20434;-58
2023/01/08 07:05:44;;;;;;;0.40;0.20;;;9.30;99.90;;;;;;5074745;28;20711;-59
2023/01/08 07:08:13;;;;;;;0.40;0.30;;;9.20;99.90;;;;;;5075371;28;20423;-59
2023/01/08 07:10:43;;;;;;;0.45;0.30;;;9.30;99.90;;;;;;5075437;28;20734;-59
2023/01/08 07:13:11;;;;;;;0.50;0.30;;;9.30;99.90;;;;;;5075624;28;20431;-59
2023/01/08 07:15:39;;;;;;;0.40;0.27;;;9.40;99.90;;;;;;5075214;28;20424;-59
2023/01/08 07:18:06;;;;;;;0.60;0.30;;;9.40;99.90;;;;;;5074415;28;20435;-59
2023/01/08 07:20:34;;;;;;;0.40;0.30;;;9.30;99.90;;;;;;5074022;28;20831;-60
2023/01/08 07:23:02;;;;;;;0.70;0.30;;;9.20;99.90;;;;;;5075231;28;20430;-59
2023/01/08 07:25:29;;;;;;;0.40;0.30;;;9.20;99.90;;;;;;5073407;28;20727;-59
2023/01/08 07:27:58;;;;;;;0.43;0.20;;;9.10;99.90;;;;;;5073970;28;20451;-59
2023/01/08 07:30:25;;;;;;;0.60;0.30;;;9.10;99.90;;;;;;5072600;28;20895;-59
2023/01/08 07:32:53;;;;;;;0.50;0.30;;;9.20;99.90;;;;;;5074282;28;20428;-59
2023/01/08 07:35:20;;;;;;;0.57;0.30;;;9.20;99.90;;;;;;5074844;28;20434;-59
2023/01/08 07:37:47;;;;;;;0.50;0.30;;;9.20;99.90;;;;;;5074619;28;20439;-59
2023/01/08 07:40:14;;;;;;;0.50;0.30;;;9.10;99.90;;;;;;5073709;28;20415;-59
2023/01/08 07:42:41;;;;;;;0.50;0.30;;;9.10;99.90;;;;;;5074896;28;20424;-59
2023/01/08 07:45:11;;;;;;;0.60;0.30;;;9.10;99.90;;;;;;5074445;28;20424;-59
2023/01/08 07:47:38;;;;;;;0.90;0.30;;;9.00;99.90;;;;;;5072645;28;20434;-59
2023/01/08 07:50:06;;;;;;;0.50;0.30;;;9.00;99.90;;;;;;5073116;28;20426;-59
2023/01/08 07:52:33;;;;;;;0.52;0.30;;;8.90;99.90;;;;;;5074794;28;20427;-59
2023/01/08 07:55:00;;;;;;;0.60;0.30;;;8.90;99.90;;;;;;5073681;28;20412;-59
2023/01/08 07:57:29;;;;;;;0.50;0.30;;;8.90;99.90;;;;;;5074843;28;20432;-59
2023/01/08 07:59:56;;;;;;;0.80;0.20;;;9.00;99.90;;;;;;5074251;28;20419;-59
2023/01/08 08:02:25;;;;;;;0.60;0.20;;;9.00;99.90;;;;;;5074057;28;20428;-59
2023/01/08 08:04:52;;;;;;;0.60;0.30;;;9.00;99.90;;;;;;5074002;28;20437;-59
2023/01/08 08:07:19;;;;;;;0.50;0.30;;;8.90;99.90;;;;;;5073795;28;20835;-59
2023/01/08 08:09:46;;;;;;;0.90;0.40;;;8.80;99.90;;;;;;5074984;28;20422;-59
2023/01/08 08:12:14;;;;;;;0.60;0.30;;;8.80;99.90;;;;;;5073716;28;20520;-59
2023/01/08 08:14:41;;;;;;;0.40;0.25;;;8.90;99.90;;;;;;5073878;28;20473;-59
2023/01/08 08:17:08;;;;;;;0.50;0.20;;;9.00;99.90;;;;;;5074508;28;20847;-59
2023/01/08 08:19:36;;;;;;;0.50;0.20;;;9.00;99.90;;;;;;5073218;28;20427;-59
2023/01/08 08:22:04;;;;;;;0.40;0.20;;;8.90;99.90;;;;;;5074802;28;20630;-59
2023/01/08 08:24:31;;;;;;;0.50;0.30;;;9.00;99.90;;;;;;5076834;28;20422;-59
2023/01/08 08:26:58;;;;;;;0.50;0.28;;;8.90;99.90;;;;;;5077411;28;20501;-59
2023/01/08 08:29:25;;;;;;;0.60;0.30;;;8.90;99.90;;;;;;5077815;28;20415;-58
2023/01/08 08:31:52;;;;;;;0.60;0.30;;;8.90;99.90;;;;;;5078393;28;20432;-58
2023/01/08 08:34:21;;;;;;;0.50;0.30;;;8.80;99.90;;;;;;5077518;28;20419;-59
2023/01/08 08:36:49;;;;;;;0.50;0.30;;;8.80;99.90;;;;;;5077761;28;20427;-59
2023/01/08 08:39:17;;;;;;;0.40;0.30;;;8.80;99.90;;;;;;5076637;28;20987;-59
2023/01/08 08:41:44;;;;;;;0.50;0.30;;;8.90;99.90;;;;;;5077644;28;20760;-58
2023/01/08 08:44:11;;;;;;;0.50;0.30;;;8.90;99.90;;;;;;5077428;28;20834;-58
2023/01/08 08:46:39;;;;;;;0.50;0.30;;;8.90;99.90;;;;;;5076639;28;20758;-59
2023/01/08 08:49:06;;;;;;;0.40;0.30;;;9.00;99.90;;;;;;5077354;28;20430;-60
2023/01/08 08:51:33;;;;;;;0.50;0.30;;;8.90;99.90;;;;;;5077794;28;20522;-60
2023/01/08 08:54:02;;;;;;;0.40;0.30;;;8.90;99.90;;;;;;5077799;28;20424;-60
2023/01/08 08:56:29;;;;;;;0.80;0.40;;;8.90;99.90;;;;;;5078403;28;20438;-60
2023/01/08 08:58:57;;;;;;;0.40;0.25;;;9.00;99.90;;;;;;5077388;28;20855;-60
2023/01/08 09:01:24;;;;;;;0.90;0.30;;;8.90;99.90;;;;;;5076768;28;20459;-59
2023/01/08 09:03:51;;;;;;;0.60;0.30;;;8.90;99.90;;;;;;5077736;28;20431;-61
2023/01/08 09:06:18;;;;;;;0.50;0.20;;;8.90;99.90;;;;;;5076603;28;20431;-60
2023/01/08 09:08:45;;;;;;;0.50;0.30;;;9.00;99.90;;;;;;5077041;28;20415;-60
2023/01/08 09:11:14;;;;;;;0.50;0.30;;;9.00;99.90;;;;;;5077257;28;20419;-60
2023/01/08 09:13:41;;;;;;;0.60;0.30;;;8.90;99.90;;;;;;5057036;28;20425;-59
2023/01/08 09:16:08;;;;;;;0.45;0.30;;;8.90;99.90;;;;;;5057046;28;20421;-60
2023/01/08 09:18:35;;;;;;;0.50;0.30;;;9.00;99.90;;;;;;5056604;28;20469;-60
2023/01/08 09:21:05;;;;;;;0.60;0.30;;;9.00;99.90;;;;;;5057441;28;20847;-60
2023/01/08 09:23:33;;;;;;;0.50;0.20;;;9.10;99.90;;;;;;5056711;28;20467;-59
2023/01/08 09:26:00;;;;;;;0.40;0.20;;;9.10;99.90;;;;;;5055843;28;20518;-59
2023/01/08 09:28:29;;;;;;;1.63;0.30;;;9.10;99.90;;;;;;5054744;28;20421;-60
2023/01/08 09:30:56;;;;;;;0.60;0.30;;;9.10;99.90;;;;;;5055421;28;20418;-59
2023/01/08 09:33:24;;;;;;;0.50;0.30;;;9.10;99.90;;;;;;5055565;28;20421;-59
2023/01/08 09:35:51;;;;;;;0.60;0.30;;;9.20;99.90;;;;;;5055220;28;20506;-60
2023/01/08 09:38:18;;;;;;;0.60;0.30;;;9.20;99.90;;;;;;5055924;28;20451;-60
2023/01/08 09:40:52;;;;;;;0.93;0.30;;;9.20;99.90;;;;;;5056845;28;20500;-60
2023/01/08 09:43:22;;;;;;;0.70;0.40;;;9.20;99.90;;;;;;5056445;28;20444;-60
2023/01/08 09:45:55;;;;;;;0.63;0.30;;;9.20;99.90;;;;;;5057044;28;20428;-60
2023/01/08 09:48:25;;;;;;;0.50;0.30;;;9.20;99.90;;;;;;5056660;28;20425;-60
2023/01/08 09:50:53;;;;;;;0.50;0.30;;;9.20;99.90;;;;;;5056614;28;20517;-60
2023/01/08 09:53:20;;;;;;;0.40;0.20;;;9.20;99.90;;;;;;5055241;28;20436;-60
2023/01/08 09:55:55;;;;;;;0.50;0.30;;;9.40;99.90;;;;;;5055520;28;20483;-60
2023/01/08 09:58:38;;;;;;;0.60;0.30;;;9.40;99.90;;;;;;5055538;28;20729;-60
2023/01/08 10:01:10;;;;;;;0.50;0.30;;;9.40;99.90;;;;;;5071315;28;20427;-60
2023/01/08 10:03:41;;;;;;;0.60;0.30;;;9.40;99.90;;;;;;5075452;28;20434;-61
2023/01/08 10:06:10;;;;;;;0.50;0.30;;;9.40;99.90;;;;;;5075010;28;20451;-60
2023/01/08 10:08:38;;;;;;;0.50;0.30;;;9.50;99.90;;;;;;5074913;28;20414;-60
2023/01/08 10:11:06;;;;;;;0.50;0.30;;;9.50;99.90;;;;;;5074646;28;20455;-60
2023/01/08 10:13:37;;;;;;;0.57;0.30;;;9.50;99.90;;;;;;5074960;28;20418;-60
2023/01/08 10:16:11;;;;;;;0.52;0.30;;;9.60;99.90;;;;;;5075765;28;20419;-59
2023/01/08 10:18:40;;;;;;;0.57;0.30;;;9.70;99.90;;;;;;5075036;28;20438;-60
2023/01/08 10:21:12;;;;;;;0.40;0.20;;;9.60;99.90;;;;;;5075228;28;20423;-60
2023/01/08 10:23:50;;;;;;;0.50;0.30;;;9.70;99.90;;;;;;5075605;28;20735;-60
2023/01/08 10:26:27;;;;;;;0.40;0.30;;;9.70;99.90;;;;;;5075772;28;20782;-60
2023/01/08 10:29:09;;;;;;;0.50;0.30;;;9.70;99.90;;;;;;5074988;28;20420;-61
2023/01/08 10:31:46;;;;;;;0.60;0.30;;;9.80;99.90;;;;;;5075148;28;20451;-60
2023/01/08 10:34:27;;;;;;;0.60;0.30;;;9.90;99.90;;;;;;5074299;28;20423;-60
2023/01/08 10:36:57;;;;;;;0.57;0.30;;;9.90;99.90;;;;;;5074410;28;20514;-60
2023/01/08 10:39:27;;;;;;;0.50;0.30;;;9.90;99.90;;;;;;5074489;28;20518;-60
2023/01/08 10:41:57;;;;;;;0.52;0.30;;;9.90;99.90;;;;;;5074210;28;20786;-60
2023/01/08 10:44:26;;;;;;;0.70;0.20;;;10.00;99.90;;;;;;5073427;28;20415;-60
2023/01/08 10:46:58;;;;;;;0.53;0.20;;;10.10;99.90;;;;;;5074910;28;20432;-60
2023/01/08 10:49:32;;;;;;;0.50;0.30;;;10.10;99.90;;;;;;5090395;28;20520;-60
2023/01/08 10:52:00;;;;;;;0.60;0.40;;;10.00;99.90;;;;;;5073429;28;20439;-60
2023/01/08 10:54:33;;;;;;;0.52;0.30;;;10.00;99.90;;;;;;5075710;28;20458;-60
2023/01/08 10:57:00;;;;;;;0.50;0.30;;;9.90;99.90;;;;;;5072649;28;20438;-60
2023/01/08 10:59:28;;;;;;;0.50;0.30;;;10.00;99.90;;;;;;5086065;28;20430;-60
2023/01/08 11:01:58;;;;;;;0.60;0.22;;;10.10;99.90;;;;;;5095195;28;20422;-60
2023/01/08 11:04:31;;;;;;;0.70;0.40;;;10.30;99.90;;;;;;5094838;28;20908;-60
2023/01/08 11:07:01;;;;;;;0.57;0.30;;;10.40;99.90;;;;;;5075700;28;20439;-60
2023/01/08 11:09:31;;;;;;;0.50;0.20;;;10.40;99.90;;;;;;5074205;28;20415;-60
2023/01/08 11:11:59;;;;;;;0.50;0.30;;;10.40;99.90;;;;;;5071558;28;20939;-60
2023/01/08 11:14:30;;;;;;;0.50;0.30;;;10.40;99.90;;;;;;5074767;28;20851;-60
2023/01/08 11:16:59;;;;;;;0.50;0.20;;;10.40;99.90;;;;;;5073119;28;20438;-60
2023/01/08 11:19:29;;;;;;;0.60;0.30;;;10.40;99.90;;;;;;5074170;28;20433;-60
2023/01/08 11:21:59;;;;;;;0.40;0.20;;;10.50;99.90;;;;;;5074298;28;20447;-61
2023/01/08 11:24:31;;;;;;;0.50;0.20;;;10.60;99.90;;;;;;5073895;28;20533;-60
2023/01/08 11:27:05;;;;;;;0.50;0.20;;;10.50;99.90;;;;;;5073214;28;20446;-61
2023/01/08 11:29:40;;;;;;;0.45;0.30;;;10.50;99.90;;;;;;5071291;28;20513;-61
2023/01/08 11:32:38;;;;;;;3.00;1.95;;;10.50;99.90;;;;;;5072496;28;20878;-58
2023/01/08 11:35:12;;;;;;;0.67;0.40;;;10.60;99.90;;;;;;5070426;28;20507;-59
2023/01/08 11:37:42;;;;;;;0.50;0.20;;;10.70;99.90;;;;;;5071042;28;20513;-60
2023/01/08 11:40:15;;;;;;;0.40;0.20;;;10.70;99.90;;;;;;5071569;28;20431;-60
2023/01/08 11:43:03;;;;;;;1.00;0.52;;;10.60;99.90;;;;;;5074878;28;20534;-58
2023/01/08 11:45:41;;;;;;;0.40;0.20;;;10.80;99.90;;;;;;5068617;28;20424;-61
2023/01/08 11:48:28;;;;;;;0.50;0.20;;;10.70;99.90;;;;;;5064420;28;20439;-60
2023/01/08 11:51:17;;;;;;;0.40;0.20;;;10.70;99.90;;;;;;5072278;28;20518;-60
2023/01/08 11:53:49;;;;;;;0.40;0.20;;;10.60;99.90;;;;;;5073526;28;20419;-60
2023/01/08 11:56:24;;;;;;;0.40;0.20;;;10.70;99.90;;;;;;5056391;28;20436;-60
2023/01/08 11:59:03;;;;;;;0.50;0.20;;;10.60;99.90;;;;;;5080844;28;20518;-60
2023/01/08 12:01:47;;;;;;;0.50;0.22;;;10.50;99.90;;;;;;5094559;28;20430;-60
2023/01/08 12:04:35;;;;;;;0.50;0.20;;;10.50;99.90;;;;;;5069921;28;20522;-60
2023/01/08 12:07:09;;;;;;;0.40;0.25;;;10.40;99.90;;;;;;5075102;28;20549;-60
2023/01/08 12:09:41;;;;;;;0.50;0.20;;;10.50;99.90;;;;;;5084586;28;20439;-60
2023/01/08 12:12:23;;;;;;;0.40;0.20;;;10.50;99.90;;;;;;5070024;28;20846;-60
2023/01/08 12:15:02;;;;;;;0.40;0.20;;;10.50;99.90;;;;;;5078073;28;20427;-60
2023/01/08 12:17:55;;;;;;;0.47;0.20;;;10.50;99.90;;;;;;5058119;28;20468;-60
2023/01/08 12:20:32;;;;;;;0.40;0.20;;;10.40;99.90;;;;;;5057367;28;20437;-60
2023/01/08 12:23:11;;;;;;;0.40;0.20;;;10.50;99.90;;;;;;5069426;28;20854;-60
2023/01/08 12:26:12;;;;;;;0.43;0.20;;;10.50;99.90;;;;;;5077188;28;20438;-60
2023/01/08 12:29:09;;;;;;;0.50;0.20;;;10.50;99.90;;;;;;5078396;28;20842;-59
2023/01/08 12:32:04;;;;;;;0.40;0.20;;;10.50;99.90;;;;;;5070034;28;20441;-60
2023/01/08 12:34:46;;;;;;;0.50;0.22;;;10.50;99.90;;;;;;5067422;28;20435;-61
2023/01/08 12:37:19;;;;;;;0.40;0.20;;;10.50;99.90;;;;;;5086729;28;20437;-60
2023/01/08 12:39:55;;;;;;;0.50;0.30;;;10.40;99.90;;;;;;5096636;28;20426;-60
2023/01/08 12:42:24;;;;;;;0.50;0.30;;;10.50;99.90;;;;;;5093858;28;20494;-60
2023/01/08 12:44:54;;;;;;;0.40;0.27;;;10.60;99.90;;;;;;5071392;28;20443;-60
2023/01/08 12:47:26;;;;;;;0.47;0.20;;;10.60;99.90;;;;;;5078550;28;20788;-62
2023/01/08 12:50:04;;;;;;;0.50;0.30;;;10.60;99.90;;;;;;5076665;28;20455;-60
2023/01/08 12:52:39;;;;;;;0.50;0.20;;;10.50;99.90;;;;;;5077062;28;20423;-61
2023/01/08 12:55:17;;;;;;;0.50;0.30;;;10.60;99.90;;;;;;5074822;28;20446;-60
2023/01/08 12:57:49;;;;;;;0.60;0.20;;;10.70;99.90;;;;;;5071793;28;20488;-61
2023/01/08 13:00:23;;;;;;;0.50;0.30;;;10.60;99.90;;;;;;5077515;28;20427;-60
2023/01/08 13:02:56;;;;;;;0.82;0.60;;;10.70;99.90;;;;;;5077357;28;20430;-61
2023/01/08 13:05:33;;;;;;;0.93;0.30;;;10.70;99.90;;;;;;5057327;28;20512;-60
2023/01/08 13:08:04;;;;;;;1.35;0.30;;;10.80;99.90;;;;;;5058014;28;20429;-61
2023/01/08 13:10:38;;;;;;;0.60;0.20;;;10.80;99.90;;;;;;5071595;28;20498;-61
2023/01/08 13:13:07;;;;;;;0.70;0.20;;;10.90;99.90;;;;;;5076978;28;20435;-60